createdAt,value
2018-12-03T00:01:43.491Z,93076.56
2018-12-03T00:04:15.335Z,93078.36
2018-12-03T00:06:43.209Z,93077.78
2018-12-03T00:09:10.786Z,93075.87
2018-12-03T00:11:38.331Z,93078.42
2018-12-03T00:14:05.957Z,93073.37
2018-12-03T00:16:33.618Z,93057.83
2018-12-03T00:19:02.033Z,93057.63
2018-12-03T00:21:29.593Z,93044.61
2018-12-03T00:23:57.189Z,93034.31
2018-12-03T00:26:24.833Z,93049.45
2018-12-03T00:28:52.429Z,93045.52
2018-12-03T00:31:20.017Z,93050.28
2018-12-03T00:33:47.582Z,93046.53
2018-12-03T00:36:15.125Z,93058.19
2018-12-03T00:38:43.113Z,93051.95
2018-12-03T00:41:10.773Z,93050.94
2018-12-03T00:43:38.304Z,93052.12
2018-12-03T00:46:06.098Z,93051.69
2018-12-03T00:48:33.673Z,93063.08
2018-12-03T00:51:01.288Z,93065.39
2018-12-03T00:53:28.861Z,93072.86
2018-12-03T00:55:56.399Z,93082.60
2018-12-03T00:58:24.072Z,93088.14
2018-12-03T01:00:51.657Z,93103.87
2018-12-03T01:03:19.302Z,93109.54
2018-12-03T01:05:47.049Z,93115.18
2018-12-03T01:08:14.647Z,93112.16
2018-12-03T01:10:42.204Z,93111.73
2018-12-03T01:13:09.761Z,93107.09
2018-12-03T01:15:37.318Z,93084.22
2018-12-03T01:18:04.953Z,93096.44
2018-12-03T01:20:32.548Z,93094.09
2018-12-03T01:23:00.109Z,93086.84
2018-12-03T01:25:27.725Z,93094.58
2018-12-03T01:27:55.267Z,93097.37
2018-12-03T01:30:22.786Z,93101.86
2018-12-03T01:32:50.329Z,93101.95
2018-12-03T01:35:17.899Z,93102.69
2018-12-03T01:37:45.440Z,93099.46
2018-12-03T01:40:14.008Z,93099.78
2018-12-03T01:42:41.588Z,93093.91
2018-12-03T01:45:09.858Z,93093.21
2018-12-03T01:47:37.457Z,93088.17
2018-12-03T01:50:12.405Z,93084.34
2018-12-03T01:52:39.949Z,93080.28
2018-12-03T01:55:08.077Z,93078.67
2018-12-03T01:57:35.635Z,93075.88
2018-12-03T02:00:04.185Z,93076.05
2018-12-03T02:02:31.716Z,93086.36
2018-12-03T02:04:59.521Z,93083.11
2018-12-03T02:07:27.056Z,93092.08
2018-12-03T02:09:54.577Z,93100.64
2018-12-03T02:12:22.149Z,93095.22
2018-12-03T02:14:49.742Z,93097.84
2018-12-03T02:17:17.317Z,93095.40
2018-12-03T02:19:44.886Z,93099.64
2018-12-03T02:22:12.437Z,93084.92
2018-12-03T02:24:39.980Z,93067.56
2018-12-03T02:27:07.531Z,93091.59
2018-12-03T02:29:35.090Z,93089.41
2018-12-03T02:32:03.141Z,93085.75
2018-12-03T02:34:30.724Z,93082.73
2018-12-03T02:36:58.260Z,93088.75
2018-12-03T02:39:25.805Z,93088.98
2018-12-03T02:41:53.469Z,93089.16
2018-12-03T02:44:21.014Z,93092.51
2018-12-03T02:46:48.569Z,93092.38
2018-12-03T02:49:16.114Z,93073.20
2018-12-03T02:51:43.689Z,93076.03
2018-12-03T02:54:11.226Z,93075.33
2018-12-03T02:56:38.793Z,93070.96
2018-12-03T02:59:06.365Z,93079.73
2018-12-03T03:01:33.954Z,93080.78
2018-12-03T03:04:01.513Z,93087.20
2018-12-03T03:06:29.090Z,93073.18
2018-12-03T03:08:56.640Z,93074.36
2018-12-03T03:11:24.175Z,93071.56
2018-12-03T03:13:51.753Z,93078.42
2018-12-03T03:16:19.287Z,93082.45
2018-12-03T03:18:46.858Z,93086.52
2018-12-03T03:21:14.417Z,93083.56
2018-12-03T03:23:41.978Z,93085.08
2018-12-03T03:26:09.514Z,93081.88
2018-12-03T03:28:37.118Z,93073.20
2018-12-03T03:31:04.757Z,93081.14
2018-12-03T03:33:32.313Z,93078.52
2018-12-03T03:35:59.909Z,93078.19
2018-12-03T03:38:27.453Z,93088.30
2018-12-03T03:40:55.049Z,93092.10
2018-12-03T03:43:22.608Z,93090.02
2018-12-03T03:45:50.169Z,93097.78
2018-12-03T03:48:17.787Z,93103.02
2018-12-03T03:50:45.314Z,93095.16
2018-12-03T03:53:12.894Z,93097.88
2018-12-03T03:55:40.455Z,93100.98
2018-12-03T03:58:07.991Z,93096.81
2018-12-03T04:00:35.552Z,93094.33
2018-12-03T04:03:03.126Z,93088.67
2018-12-03T04:05:30.733Z,93099.77
2018-12-03T04:07:58.305Z,93086.56
2018-12-03T04:10:25.861Z,93091.53
2018-12-03T04:12:53.448Z,93086.86
2018-12-03T04:15:21.022Z,93094.15
2018-12-03T04:17:48.563Z,93097.52
2018-12-03T04:20:16.773Z,93092.10
2018-12-03T04:22:45.036Z,93097.22
2018-12-03T04:25:12.924Z,93091.09
2018-12-03T04:27:40.493Z,93091.09
2018-12-03T04:30:09.268Z,93094.09
2018-12-03T04:32:36.869Z,93086.45
2018-12-03T04:35:04.674Z,93091.57
2018-12-03T04:37:32.230Z,93095.33
2018-12-03T04:39:59.802Z,93108.27
2018-12-03T04:42:27.396Z,93106.34
2018-12-03T04:44:54.979Z,93111.89
2018-12-03T04:47:22.534Z,93113.25
2018-12-03T04:49:50.085Z,93116.70
2018-12-03T04:52:17.631Z,93112.41
2018-12-03T04:54:45.229Z,93123.73
2018-12-03T04:57:12.900Z,93124.74
2018-12-03T04:59:40.465Z,93133.87
2018-12-03T05:02:08.011Z,93133.27
2018-12-03T05:04:35.556Z,93126.91
2018-12-03T05:07:03.182Z,93129.94
2018-12-03T05:09:30.744Z,93120.94
2018-12-03T05:11:58.305Z,93119.33
2018-12-03T05:14:25.947Z,93120.39
2018-12-03T05:16:53.554Z,93111.28
2018-12-03T05:19:21.603Z,93107.26
2018-12-03T05:21:49.158Z,93104.03
2018-12-03T05:24:16.741Z,93108.46
2018-12-03T05:26:44.292Z,93112.72
2018-12-03T05:29:11.937Z,93108.80
2018-12-03T05:31:39.498Z,93111.72
2018-12-03T05:34:07.176Z,93116.70
2018-12-03T05:36:34.738Z,93117.69
2018-12-03T05:39:02.378Z,93111.84
2018-12-03T05:42:28.270Z,93116.24
2018-12-03T10:37:19.063Z,93074.39
2018-12-03T16:34:33.058Z,92860.91
